Terminal Aerodrome Forecast
Issued by NWS

Home | Current Version | Previous Version | Text Only | Print | Product List | Glossary On
Versions: 1 2 3 4 5 6 7 8 9 10 11 12 13 14 15 16 17 18 19 20 21 22 23 24 25 26 27 28 29 30 31 32 33 34 35 36 37 38 39 40 41
000
FTAK31 PAFA 041129
TAFAOM
TAF
PAOM 041129Z 0412/0512 29007KT P6SM OVC011
     FM042000 27010KT P6SM SCT015 SCT040
     FM050200 32007KT P6SM SCT025
     FM051000 33005KT P6SM FEW007 BKN025=

USA.gov is the U.S. government's official web portal to all federal, state and local government web resources and services.